Time;durP1;ratioP1;P1;durP2;ratioP2;P2;SDS_P1;SDS_P2;PMS_P1;PMS_P2;Temp;Humidity;BMP_temperature;BMP_pressure;BME280_temperature;BME280_humidity;BME280_pressure;Samples;Min_cycle;Max_cycle;Signal;HPM_P1;HPM_P2
2022/04/05 00:01:37;;;;;;;11.75;10.15;;;;;;;0.35;61.41;99700.36;1675160;83;21575;-69
2022/04/05 00:04:04;;;;;;;;;;;;;;;0.37;61.33;99697.11;1653004;85;21470;-69
2022/04/05 00:06:30;;;;;;;12.30;10.20;;;;;;;0.38;61.17;99690.91;1655775;84;20187;-68
2022/04/05 00:08:57;;;;;;;12.03;10.82;;;;;;;0.35;61.26;99686.75;1639526;86;21152;-69
2022/04/05 00:11:27;;;;;;;12.97;10.27;;;;;;;0.36;61.16;99690.23;1651466;83;21021;-69
2022/04/05 00:13:53;;;;;;;11.40;10.07;;;;;;;0.37;61.19;99686.62;1686996;83;21108;-70
2022/04/05 00:16:20;;;;;;;13.25;10.60;;;;;;;0.35;61.25;99685.44;1691637;83;21049;-71
2022/04/05 00:18:47;;;;;;;10.47;9.40;;;;;;;0.36;61.18;99683.67;1691422;83;21173;-70
2022/04/05 00:21:14;;;;;;;13.97;11.33;;;;;;;0.34;61.18;99677.70;1693989;83;21076;-68
2022/04/05 00:23:41;;;;;;;13.38;10.55;;;;;;;0.33;61.24;99679.52;1668438;82;21121;-70
2022/04/05 00:26:07;;;;;;;11.55;10.30;;;;;;;0.31;61.25;99682.76;1659731;84;21363;-71
2022/04/05 00:28:34;;;;;;;10.73;9.63;;;;;;;0.29;61.23;99678.63;1651840;84;21311;-70
2022/04/05 00:31:01;;;;;;;13.77;10.57;;;;;;;0.26;61.25;99669.72;1662432;84;21651;-71
2022/04/05 00:33:28;;;;;;;12.37;10.97;;;;;;;0.24;61.41;99662.48;1656520;84;21836;-71
2022/04/05 00:35:56;;;;;;;12.80;10.47;;;;;;;0.24;61.33;99659.86;1676178;84;21202;-71
2022/04/05 00:38:23;;;;;;;12.70;10.37;;;;;;;0.22;61.46;99659.99;1691027;84;21036;-70
2022/04/05 00:40:50;;;;;;;13.80;10.20;;;;;;;0.17;61.38;99659.11;1663464;84;21124;-70
2022/04/05 00:43:16;;;;;;;11.12;10.05;;;;;;;0.18;61.26;99654.20;1621578;86;21071;-71
2022/04/05 00:45:44;;;;;;;12.07;10.73;;;;;;;0.18;61.28;99665.98;1641205;85;21092;-70
2022/04/05 00:48:14;;;;;;;11.95;9.93;;;;;;;0.19;61.32;99660.29;1654599;85;22060;-69
2022/04/05 00:50:41;;;;;;;11.33;10.13;;;;;;;-0.25;61.28;99586.00;1612578;87;21675;-69
2022/04/05 00:53:08;;;;;;;11.85;10.43;;;;;;;0.12;61.19;99648.20;1607537;87;21179;-68
2022/04/05 00:55:36;;;;;;;10.80;9.67;;;;;;;0.17;60.90;99651.70;1600719;87;21164;-70
2022/04/05 00:58:04;;;;;;;11.13;9.93;;;;;;;0.17;60.92;99643.38;1604739;87;21037;-71
2022/04/05 01:00:32;;;;;;;13.87;10.90;;;;;;;0.18;60.68;99644.20;1613666;87;21046;-70
2022/04/05 01:03:00;;;;;;;10.67;9.57;;;;;;;0.19;60.61;99641.45;1634380;86;21041;-70
2022/04/05 01:05:30;;;;;;;11.17;10.03;;;;;;;0.16;60.42;99640.89;1629512;86;21091;-70
2022/04/05 01:08:02;;;;;;;11.90;9.47;;;;;;;0.18;60.36;99634.54;1648177;85;21536;-68
2022/04/05 01:10:30;;;;;;;14.57;10.03;;;;;;;0.18;60.35;99637.66;1674516;84;21096;-69
2022/04/05 01:12:57;;;;;;;12.33;9.93;;;;;;;0.19;60.31;99631.45;1664376;84;21028;-70
2022/04/05 01:15:24;;;;;;;;;;;;;;;0.22;60.00;99627.23;1676320;84;21514;-70
2022/04/05 01:17:53;;;;;;;10.23;9.08;;;;;;;0.22;59.60;99621.17;1666534;84;20884;-69
2022/04/05 01:20:20;;;;;;;10.57;9.20;;;;;;;0.16;59.60;99622.06;1670573;84;21022;-69
2022/04/05 01:22:50;;;;;;;9.00;8.10;;;;;;;0.18;59.59;99612.75;1678106;83;21116;-70
2022/04/05 01:25:18;;;;;;;8.97;8.07;;;;;;;0.17;59.50;99613.24;1658970;84;21101;-71
2022/04/05 01:27:47;;;;;;;9.77;8.43;;;;;;;0.18;59.35;99601.78;1659263;84;21693;-69
2022/04/05 01:30:14;;;;;;;12.67;9.97;;;;;;;0.22;59.13;99600.20;1679619;84;21022;-69
2022/04/05 01:32:43;;;;;;;12.77;10.20;;;;;;;0.21;58.82;99593.29;1673744;84;21045;-70
2022/04/05 01:35:10;;;;;;;10.07;8.60;;;;;;;0.24;58.76;99590.41;1658880;85;21181;-70
2022/04/05 01:37:36;;;;;;;10.17;9.17;;;;;;;0.24;58.57;99590.41;1621397;86;21089;-71
2022/04/05 01:40:05;;;;;;;11.73;9.43;;;;;;;0.22;58.51;99588.41;1662794;85;21073;-69
2022/04/05 01:42:33;;;;;;;10.47;9.37;;;;;;;0.15;58.61;99584.19;1661665;84;21010;-68
2022/04/05 01:45:00;;;;;;;13.67;9.57;;;;;;;0.12;58.61;99591.86;1670764;84;22299;-70
2022/04/05 01:47:27;;;;;;;12.40;10.40;;;;;;;0.12;58.82;99584.00;1685014;83;21075;-68
2022/04/05 01:49:54;;;;;;;11.70;8.43;;;;;;;0.10;58.74;99578.07;1687424;83;21546;-69
2022/04/05 01:52:20;;;;;;;13.25;11.63;;;;;;;0.12;58.75;99576.63;1683348;83;21066;-69
2022/04/05 01:54:46;;;;;;;;;;;;;;;0.13;58.79;99575.19;1686456;83;21071;-70
2022/04/05 01:57:13;;;;;;;11.60;9.53;;;;;;;0.11;59.03;99575.78;1681244;84;20104;-71
2022/04/05 01:59:40;;;;;;;11.43;10.28;;;;;;;-0.03;59.37;99564.44;1680132;83;21110;-69
2022/04/05 02:02:10;;;;;;;9.70;8.70;;;;;;;-0.07;59.45;99565.19;1685945;83;20999;-70
2022/04/05 02:04:38;;;;;;;11.37;9.17;;;;;;;-0.07;59.62;99563.06;1685435;83;21149;-70
2022/04/05 02:07:14;;;;;;;12.67;9.87;;;;;;;-0.13;59.67;99566.21;1677228;83;21050;-69
2022/04/05 02:09:42;;;;;;;11.23;9.00;;;;;;;-0.09;59.65;99567.62;1665060;83;21068;-69
2022/04/05 02:12:10;;;;;;;11.33;10.13;;;;;;;-0.08;59.71;99557.46;1643512;86;21152;-69
2022/04/05 02:14:48;;;;;;;14.03;10.07;;;;;;;-0.06;59.63;99559.00;1644118;86;21141;-69
2022/04/05 02:17:17;;;;;;;13.17;9.53;;;;;;;-0.05;59.42;99552.78;1633712;86;21088;-69
2022/04/05 02:19:46;;;;;;;10.47;9.13;;;;;;;-0.02;59.41;99553.81;1655834;86;21096;-69
2022/04/05 02:22:16;;;;;;;8.53;7.73;;;;;;;0.01;59.44;99549.27;1648240;86;21061;-67
2022/04/05 02:24:43;;;;;;;11.00;9.87;;;;;;;0.00;59.29;99549.75;1609794;87;21242;-70
2022/04/05 02:27:10;;;;;;;10.50;8.57;;;;;;;0.01;59.10;99548.77;1627576;86;21022;-70
2022/04/05 02:29:39;;;;;;;10.50;9.40;;;;;;;-0.01;58.67;99551.52;1641526;86;21161;-69
2022/04/05 02:32:10;;;;;;;11.00;9.33;;;;;;;-0.05;58.87;99540.17;1625917;86;21075;-70
2022/04/05 02:34:37;;;;;;;12.83;9.60;;;;;;;-0.06;58.83;99535.88;1652458;85;21096;-70
2022/04/05 02:37:05;;;;;;;10.33;9.33;;;;;;;-0.05;59.12;99529.69;1652332;84;21117;-69
2022/04/05 02:39:32;;;;;;;11.67;9.80;;;;;;;-0.08;59.04;99533.89;1651636;84;21601;-70
2022/04/05 02:42:00;;;;;;;12.93;9.50;;;;;;;-0.11;59.02;99528.95;1658603;85;21050;-69
2022/04/05 02:44:28;;;;;;;10.98;9.88;;;;;;;-0.15;59.24;99524.47;1658755;84;21096;-70
2022/04/05 02:46:57;;;;;;;12.43;9.43;;;;;;;-0.16;59.33;99523.29;1654367;84;21138;-70
2022/04/05 02:49:25;;;;;;;12.23;9.23;;;;;;;-0.14;59.42;99522.17;1661387;84;21081;-70
2022/04/05 02:51:53;;;;;;;11.80;8.60;;;;;;;-0.11;59.39;99515.84;1663346;84;21117;-70
2022/04/05 02:54:21;;;;;;;10.30;9.17;;;;;;;-0.10;59.38;99513.55;1658931;84;21315;-70
2022/04/05 02:56:50;;;;;;;11.70;8.87;;;;;;;-0.12;59.48;99501.08;1671827;84;21081;-72
2022/04/05 02:59:17;;;;;;;10.50;8.57;;;;;;;-0.14;59.23;99501.70;1681461;84;21619;-69
2022/04/05 03:01:45;;;;;;;11.27;9.30;;;;;;;-0.13;59.03;99505.97;1676554;84;21550;-71
2022/04/05 03:04:12;;;;;;;10.43;8.40;;;;;;;-0.14;59.17;99502.52;1680544;84;21665;-69
2022/04/05 03:06:40;;;;;;;9.40;8.50;;;;;;;-0.13;59.25;99500.73;1689240;84;21034;-70
2022/04/05 03:09:06;;;;;;;;;;;;;;;-0.10;59.15;99499.14;1695681;84;21036;-70
2022/04/05 03:11:33;;;;;;;9.43;8.47;;;;;;;-0.13;59.25;99498.11;1684968;84;20124;-70
2022/04/05 03:14:00;;;;;;;9.93;8.93;;;;;;;-0.18;59.17;99495.92;1653821;85;21050;-69
2022/04/05 03:16:30;;;;;;;10.17;8.57;;;;;;;-0.18;59.33;99487.25;1697244;84;21024;-69
2022/04/05 03:18:58;;;;;;;11.90;9.53;;;;;;;-0.15;59.29;99486.94;1675051;84;21640;-70
2022/04/05 03:21:25;;;;;;;12.93;9.48;;;;;;;-0.15;59.21;99479.09;1689558;84;21129;-69
2022/04/05 03:23:52;;;;;;;11.07;8.77;;;;;;;-0.11;59.18;99485.72;1670443;83;21176;-69
2022/04/05 03:26:19;;;;;;;9.83;8.50;;;;;;;-0.12;59.12;99477.02;1678901;83;21552;-71
2022/04/05 03:28:47;;;;;;;11.33;8.90;;;;;;;-0.08;59.09;99474.94;1631879;85;21055;-69
2022/04/05 03:31:14;;;;;;;8.90;8.00;;;;;;;-0.06;58.91;99475.63;1627297;85;21138;-72
2022/04/05 03:33:42;;;;;;;10.20;8.27;;;;;;;-0.09;59.12;99472.00;1666813;83;21120;-69
2022/04/05 03:36:10;;;;;;;8.90;8.10;;;;;;;-0.06;58.99;99477.78;1640569;85;21120;-69
2022/04/05 03:38:37;;;;;;;12.17;8.70;;;;;;;-0.06;59.09;99464.69;1649984;85;21157;-70
2022/04/05 03:41:06;;;;;;;9.87;8.17;;;;;;;-0.02;59.08;99462.13;1639190;85;21094;-69
2022/04/05 03:43:33;;;;;;;9.10;8.00;;;;;;;0.02;59.08;99450.88;1640876;85;21099;-69
2022/04/05 03:46:00;;;;;;;10.63;9.57;;;;;;;0.07;59.05;99449.12;1636178;85;21603;-70
2022/04/05 03:48:27;;;;;;;9.97;8.47;;;;;;;0.08;59.04;99450.30;1649568;85;21155;-72
2022/04/05 03:50:55;;;;;;;11.57;9.47;;;;;;;0.16;59.11;99456.13;1636605;85;21092;-70
2022/04/05 03:53:22;;;;;;;9.90;9.00;;;;;;;0.13;59.11;99458.56;1644924;85;21133;-70
2022/04/05 03:55:50;;;;;;;9.70;8.70;;;;;;;0.19;59.05;99451.92;1650302;85;21053;-70
2022/04/05 03:58:18;;;;;;;10.90;8.80;;;;;;;0.25;58.97;99448.72;1627418;86;21520;-69
2022/04/05 04:00:45;;;;;;;9.63;8.73;;;;;;;0.30;59.10;99433.86;1642775;85;21592;-71
2022/04/05 04:03:17;;;;;;;12.80;9.07;;;;;;;0.37;59.10;99438.38;1636129;86;21079;-70
2022/04/05 04:05:45;;;;;;;10.10;9.07;;;;;;;0.43;58.90;99431.73;1606599;87;21227;-71
2022/04/05 04:08:13;;;;;;;11.73;10.13;;;;;;;0.51;58.99;99441.03;1605230;88;21160;-70
2022/04/05 04:10:42;;;;;;;13.13;10.40;;;;;;;0.62;58.89;99431.30;1615860;87;21083;-69
2022/04/05 04:13:10;;;;;;;11.37;10.13;;;;;;;0.73;58.77;99431.91;1596825;88;22202;-70
2022/04/05 04:15:38;;;;;;;13.60;10.80;;;;;;;0.89;58.45;99424.72;1634535;86;21115;-69
2022/04/05 04:18:05;;;;;;;11.25;10.05;;;;;;;0.98;58.17;99413.83;1627914;86;21135;-70
2022/04/05 04:20:32;;;;;;;12.83;10.30;;;;;;;1.12;58.21;99421.16;1610829;86;21173;-68
2022/04/05 04:23:00;;;;;;;13.63;11.40;;;;;;;1.21;57.72;99424.70;1645159;85;21086;-70
2022/04/05 04:25:27;;;;;;;12.80;10.98;;;;;;;1.22;57.76;99426.34;1663040;85;21065;-70
2022/04/05 04:27:54;;;;;;;12.37;11.13;;;;;;;1.17;58.04;99422.05;1639670;85;21555;-69
2022/04/05 04:30:21;;;;;;;12.23;10.97;;;;;;;1.15;58.27;99420.88;1650488;85;21486;-71
2022/04/05 04:32:49;;;;;;;14.73;10.70;;;;;;;1.15;58.42;99414.31;1651804;85;21749;-69
2022/04/05 04:35:16;;;;;;;13.30;11.07;;;;;;;1.16;58.45;99405.45;1656269;85;21106;-69
2022/04/05 04:37:43;;;;;;;13.80;11.73;;;;;;;1.16;58.51;99407.26;1672604;85;21062;-69
2022/04/05 04:40:12;;;;;;;14.13;11.73;;;;;;;1.16;58.74;99407.26;1649258;84;21042;-71
2022/04/05 04:42:41;;;;;;;12.73;11.13;;;;;;;1.18;58.82;99409.73;1643859;84;21030;-69
2022/04/05 04:45:09;;;;;;;16.23;11.60;;;;;;;1.13;59.16;99410.17;1659384;84;21079;-70
2022/04/05 04:47:36;;;;;;;13.30;11.27;;;;;;;1.11;59.34;99406.41;1665342;84;21022;-71
2022/04/05 04:50:04;;;;;;;14.13;11.40;;;;;;;1.12;59.66;99406.73;1664586;85;21190;-70
2022/04/05 04:52:32;;;;;;;16.60;11.70;;;;;;;1.17;59.51;99411.55;1647738;85;21018;-69
2022/04/05 04:54:58;;;;;;;13.53;11.08;;;;;;;1.19;59.54;99401.72;1641993;85;21058;-70
2022/04/05 04:57:25;;;;;;;13.77;12.10;;;;;;;1.33;59.64;99399.03;1637026;86;21083;-70
2022/04/05 04:59:53;;;;;;;12.97;11.67;;;;;;;1.51;59.16;99399.02;1640482;86;21504;-70
2022/04/05 05:02:22;;;;;;;15.23;11.23;;;;;;;1.69;58.71;99395.03;1641384;85;21081;-71
2022/04/05 05:04:50;;;;;;;13.37;11.83;;;;;;;1.85;58.37;99394.32;1655191;85;21471;-71
2022/04/05 05:07:17;;;;;;;15.30;13.00;;;;;;;2.03;57.99;99393.75;1654039;85;21607;-71
2022/04/05 05:09:44;;;;;;;;;;;;;;;2.31;58.10;99396.19;1660274;85;21018;-69
2022/04/05 05:12:11;;;;;;;14.57;12.63;;;;;;;2.63;56.71;99384.95;1677430;84;20474;-70
2022/04/05 05:14:39;;;;;;;14.67;13.00;;;;;;;2.89;56.66;99394.05;1663468;85;21097;-69
2022/04/05 05:17:06;;;;;;;13.87;12.07;;;;;;;3.17;55.32;99391.64;1655412;84;21085;-70
2022/04/05 05:19:33;;;;;;;17.80;13.40;;;;;;;3.23;54.96;99390.98;1660922;84;22312;-69
2022/04/05 05:22:00;;;;;;;16.03;12.90;;;;;;;3.11;55.05;99383.90;1673613;84;21085;-70
2022/04/05 05:24:29;;;;;;;13.50;12.00;;;;;;;2.99;55.53;99395.22;1654649;84;21536;-69
2022/04/05 05:26:56;;;;;;;16.30;13.77;;;;;;;2.86;56.06;99377.76;1689798;84;21044;-71
2022/04/05 05:29:22;;;;;;;14.43;12.95;;;;;;;2.87;56.20;99384.19;1684262;84;21561;-71
2022/04/05 05:31:48;;;;;;;;;;;;;;;2.93;56.43;99384.84;1689248;84;21101;-72
2022/04/05 05:34:22;;;;;;;18.40;14.47;;;;;;;3.08;56.40;99382.39;1665220;85;20106;-72
2022/04/05 05:36:43;;;;;;;15.27;12.73;;;;;;;3.20;55.88;99375.48;1655751;85;21486;-71
2022/04/05 05:39:10;;;;;;;15.72;12.98;;;;;;;3.39;55.63;99370.38;1656593;85;21744;-71
2022/04/05 05:41:38;;;;;;;14.10;12.67;;;;;;;3.57;55.24;99359.17;1655693;85;21658;-69
2022/04/05 05:44:06;;;;;;;17.53;15.07;;;;;;;3.31;54.72;99304.05;1649757;84;21094;-71
2022/04/05 05:46:32;;;;;;;14.27;12.17;;;;;;;3.69;54.52;99353.90;1633827;86;21113;-70
2022/04/05 05:48:59;;;;;;;15.10;13.38;;;;;;;3.60;54.85;99348.78;1629757;86;21154;-73
2022/04/05 05:51:25;;;;;;;14.73;12.00;;;;;;;3.62;55.34;99353.42;1637698;86;21137;-71
2022/04/05 05:53:52;;;;;;;;;;;;;;;3.71;54.74;99343.16;1639911;86;21150;-70
2022/04/05 05:56:18;;;;;;;14.73;13.20;;;;;;;3.72;54.52;99337.41;1642567;85;20118;-71
2022/04/05 05:58:46;;;;;;;16.85;12.23;;;;;;;3.63;54.31;99338.73;1645421;85;21177;-70
2022/04/05 06:01:16;;;;;;;14.57;11.83;;;;;;;3.60;54.54;99329.02;1653150;84;21135;-68
2022/04/05 06:03:40;;;;;;;14.90;12.87;;;;;;;3.52;54.26;99329.86;1663275;84;21091;-70
2022/04/05 06:06:07;;;;;;;14.73;13.18;;;;;;;3.36;55.04;99339.13;1653928;85;21897;-70
2022/04/05 06:08:34;;;;;;;14.15;12.47;;;;;;;3.26;55.30;99323.50;1659925;85;21612;-71
2022/04/05 06:11:01;;;;;;;16.10;13.80;;;;;;;3.25;55.55;99328.42;1652836;85;21076;-71
2022/04/05 06:13:28;;;;;;;14.87;12.20;;;;;;;3.26;55.44;99334.03;1659378;83;21628;-71
2022/04/05 06:15:54;;;;;;;14.98;13.35;;;;;;;3.25;55.37;99326.60;1648952;85;21063;-67
2022/04/05 06:18:22;;;;;;;14.40;11.60;;;;;;;3.16;55.70;99324.95;1642014;85;21080;-70
2022/04/05 06:20:52;;;;;;;14.50;10.83;;;;;;;3.09;55.81;99322.18;1652861;85;21116;-70
2022/04/05 06:23:18;;;;;;;17.60;13.05;;;;;;;3.00;55.80;99307.87;1646575;85;21140;-70
2022/04/05 06:25:45;;;;;;;13.30;11.73;;;;;;;3.16;56.11;99322.83;1641090;85;21103;-69
2022/04/05 06:28:15;;;;;;;14.20;12.80;;;;;;;3.28;55.83;99323.65;1648221;85;21321;-70
2022/04/05 06:30:41;;;;;;;14.87;13.07;;;;;;;3.36;55.61;99317.55;1649769;85;21591;-70
2022/04/05 06:33:18;;;;;;;13.10;11.60;;;;;;;3.35;55.58;99305.86;1662196;85;21122;-71
2022/04/05 06:35:48;;;;;;;14.03;12.00;;;;;;;3.37;55.36;99305.19;1631755;86;21052;-71
2022/04/05 06:38:18;;;;;;;15.07;12.57;;;;;;;3.39;55.13;99301.89;1641629;86;22235;-70
2022/04/05 06:40:46;;;;;;;14.63;13.23;;;;;;;3.44;55.22;99303.54;1635529;86;21071;-69
2022/04/05 06:43:15;;;;;;;16.87;13.97;;;;;;;3.54;55.38;99297.58;1634263;86;21104;-70
2022/04/05 06:45:44;;;;;;;18.70;12.93;;;;;;;3.60;54.68;99291.66;1643402;85;21040;-70
2022/04/05 06:48:11;;;;;;;17.50;13.50;;;;;;;3.72;54.22;99291.29;1650266;85;21097;-81
2022/04/05 06:50:38;;;;;;;14.27;12.07;;;;;;;3.74;54.21;99297.21;1660249;85;22198;-70
2022/04/05 06:53:08;;;;;;;15.83;13.70;;;;;;;3.79;54.07;99293.58;1645994;85;21137;-70
2022/04/05 06:55:37;;;;;;;17.07;13.07;;;;;;;3.78;53.97;99284.83;1662582;85;21053;-69
2022/04/05 06:58:04;;;;;;;16.20;14.00;;;;;;;3.78;53.98;99277.42;1648243;85;21138;-70
2022/04/05 07:00:33;;;;;;;14.43;12.47;;;;;;;3.83;53.81;99275.11;1655947;85;21358;-69
2022/04/05 07:03:01;;;;;;;14.57;12.97;;;;;;;3.39;53.86;99205.75;1656531;85;22169;-71
2022/04/05 07:05:29;;;;;;;15.63;13.47;;;;;;;3.88;53.49;99276.24;1648072;85;21118;-70
2022/04/05 07:07:56;;;;;;;16.10;11.20;;;;;;;3.97;53.08;99268.28;1642726;85;21129;-71
2022/04/05 07:10:24;;;;;;;15.10;13.03;;;;;;;4.08;52.75;99279.27;1649076;85;21098;-71
2022/04/05 07:12:52;;;;;;;13.77;12.10;;;;;;;4.15;52.65;99273.32;1665118;84;21030;-70
2022/04/05 07:15:21;;;;;;;13.73;11.93;;;;;;;4.25;52.38;99269.95;1681408;84;21586;-69
2022/04/05 07:17:48;;;;;;;14.00;12.53;;;;;;;4.27;51.27;99254.27;1674019;84;21077;-72
2022/04/05 07:20:14;;;;;;;14.13;12.28;;;;;;;4.36;51.58;99269.56;1656570;84;21656;-70
2022/04/05 07:22:47;;;;;;;13.48;12.07;;;;;;;4.46;51.45;99263.58;1678344;84;21010;-71
2022/04/05 07:25:15;;;;;;;13.00;11.10;;;;;;;4.57;50.81;99264.97;1664248;84;21178;-69
2022/04/05 07:27:44;;;;;;;13.73;12.30;;;;;;;4.57;50.51;99261.52;1660168;84;21082;-70
2022/04/05 07:30:13;;;;;;;14.17;10.80;;;;;;;4.57;50.32;99253.59;1673164;84;21063;-71
2022/04/05 07:32:44;;;;;;;12.27;10.97;;;;;;;4.48;50.02;99249.70;1682672;84;20972;-71
2022/04/05 07:35:17;;;;;;;12.80;11.47;;;;;;;4.46;50.24;99240.30;1659948;84;22195;-71
2022/04/05 07:37:44;;;;;;;11.47;10.27;;;;;;;4.48;49.78;99240.95;1667201;84;21530;-70
2022/04/05 07:40:12;;;;;;;;;;;;;;;4.56;49.85;99244.02;1664903;84;21708;-70
2022/04/05 07:42:44;;;;;;;11.28;9.70;;;;;;;4.66;49.81;99235.39;1669962;84;20204;-72
2022/04/05 07:45:13;;;;;;;11.70;10.13;;;;;;;4.63;48.90;99231.77;1623759;86;21011;-71
2022/04/05 07:47:40;;;;;;;11.20;10.00;;;;;;;4.67;48.89;99227.77;1677873;84;21053;-71
2022/04/05 07:50:09;;;;;;;11.43;8.90;;;;;;;4.75;48.13;99234.84;1659722;84;21074;-72
2022/04/05 07:52:36;;;;;;;13.77;11.50;;;;;;;4.78;47.78;99230.50;1666592;84;21026;-71
2022/04/05 07:55:04;;;;;;;12.20;10.37;;;;;;;4.81;47.77;99224.37;1665232;84;21066;-70
2022/04/05 07:57:31;;;;;;;11.53;10.43;;;;;;;4.88;47.17;99225.81;1666750;84;22245;-71
2022/04/05 08:00:01;;;;;;;14.58;11.53;;;;;;;4.86;47.00;99223.34;1667775;84;21060;-70
2022/04/05 08:02:28;;;;;;;11.17;9.57;;;;;;;4.87;46.63;99217.05;1681459;84;21035;-71
2022/04/05 08:04:55;;;;;;;;;;;;;;;4.86;46.58;99215.93;1671828;84;21105;-70
2022/04/05 08:07:21;;;;;;;12.33;11.03;;;;;;;4.85;47.12;99223.01;1666216;84;20274;-70
2022/04/05 08:09:48;;;;;;;12.35;11.08;;;;;;;4.80;47.20;99216.62;1658062;84;21074;-71
2022/04/05 08:12:16;;;;;;;11.73;10.60;;;;;;;4.86;47.43;99212.78;1663069;84;21034;-73
2022/04/05 08:14:43;;;;;;;11.80;10.60;;;;;;;4.94;47.03;99209.75;1656746;85;21041;-70
2022/04/05 08:17:11;;;;;;;14.67;10.73;;;;;;;4.97;46.89;99207.58;1654139;85;21623;-71
2022/04/05 08:19:37;;;;;;;11.40;10.20;;;;;;;4.91;46.92;99205.63;1653601;86;21112;-72
2022/04/05 08:22:08;;;;;;;11.30;10.20;;;;;;;4.54;47.20;99161.58;1652339;85;21542;-71
2022/04/05 08:24:36;;;;;;;12.10;10.33;;;;;;;4.85;46.82;99206.35;1641430;85;21252;-69
2022/04/05 08:27:05;;;;;;;11.67;10.17;;;;;;;4.85;46.57;99219.05;1641729;85;21070;-72
2022/04/05 08:29:31;;;;;;;11.97;10.67;;;;;;;4.87;46.96;99217.05;1650938;85;21364;-70
2022/04/05 08:31:58;;;;;;;11.80;10.63;;;;;;;4.90;46.79;99220.33;1649308;85;22212;-72
2022/04/05 08:34:25;;;;;;;12.55;10.72;;;;;;;4.87;46.73;99217.55;1656305;85;21069;-71
2022/04/05 08:36:53;;;;;;;11.47;10.27;;;;;;;4.90;46.52;99219.00;1651087;85;21159;-72
2022/04/05 08:39:19;;;;;;;11.50;10.40;;;;;;;4.93;46.80;99223.43;1649802;85;21620;-70
2022/04/05 08:41:47;;;;;;;13.30;10.83;;;;;;;4.99;47.16;99212.66;1651286;85;21058;-71
2022/04/05 08:44:18;;;;;;;11.37;10.27;;;;;;;5.06;47.00;99206.47;1651978;85;21216;-71
2022/04/05 08:46:46;;;;;;;10.80;9.70;;;;;;;5.12;46.87;99202.79;1646630;85;21182;-70
2022/04/05 08:49:13;;;;;;;11.83;10.60;;;;;;;5.17;46.79;99199.92;1658992;85;21518;-71
2022/04/05 08:51:40;;;;;;;10.50;9.47;;;;;;;5.11;46.48;99207.77;1646395;85;21141;-70
2022/04/05 08:54:07;;;;;;;10.88;8.98;;;;;;;5.10;46.89;99207.44;1648555;85;21014;-71
2022/04/05 08:56:34;;;;;;;11.93;10.20;;;;;;;5.05;47.07;99202.70;1653733;85;21042;-71
2022/04/05 08:59:01;;;;;;;11.20;10.03;;;;;;;4.95;47.45;99177.86;1647079;85;21043;-71
2022/04/05 09:01:29;;;;;;;;;;;;;;;4.93;48.00;99200.98;1664745;83;22435;-72
2022/04/05 09:03:57;;;;;;;11.07;9.43;;;;;;;4.92;48.68;99207.28;1671835;83;20143;-69
2022/04/05 09:06:29;;;;;;;10.87;9.87;;;;;;;4.81;49.13;99216.45;1685316;83;21050;-70
2022/04/05 09:09:14;;;;;;;11.67;10.47;;;;;;;4.78;49.30;99207.55;1637211;85;21148;-70
2022/04/05 09:11:52;;;;;;;10.90;9.37;;;;;;;4.77;50.88;99211.72;1667489;83;21109;-70
2022/04/05 09:14:29;;;;;;;11.70;10.50;;;;;;;4.76;51.94;99205.59;1648104;85;21153;-71
2022/04/05 09:17:08;;;;;;;11.10;10.00;;;;;;;4.75;52.77;99218.48;1646521;85;21506;-69
2022/04/05 09:19:45;;;;;;;12.93;11.37;;;;;;;4.60;53.79;99217.13;1656190;85;21038;-71
2022/04/05 09:22:14;;;;;;;12.10;10.80;;;;;;;4.54;54.37;99215.20;1651941;84;21066;-72
2022/04/05 09:24:47;;;;;;;11.70;10.60;;;;;;;4.49;55.29;99213.58;1653667;85;21545;-72
2022/04/05 09:27:12;;;;;;;14.33;11.10;;;;;;;4.42;55.76;99213.95;1645159;85;22142;-70
2022/04/05 09:29:47;;;;;;;15.43;11.00;;;;;;;4.36;56.49;99216.80;1643753;85;21110;-71
2022/04/05 09:32:36;;;;;;;13.03;11.20;;;;;;;4.35;56.47;99203.30;1651085;85;21005;-71
2022/04/05 09:35:08;;;;;;;13.53;12.33;;;;;;;4.38;56.45;99210.84;1648499;85;21077;-71
2022/04/05 09:37:38;;;;;;;11.83;10.20;;;;;;;4.42;56.79;99197.62;1635248;85;21073;-69
2022/04/05 09:40:35;;;;;;;12.80;11.60;;;;;;;4.49;57.40;99192.47;1645220;85;21081;-70
2022/04/05 09:43:13;;;;;;;12.33;11.13;;;;;;;4.54;57.66;99195.88;1642441;85;21072;-71
2022/04/05 09:45:57;;;;;;;12.87;11.47;;;;;;;4.61;57.92;99187.08;1646611;85;21009;-72
2022/04/05 09:48:35;;;;;;;13.00;11.53;;;;;;;4.75;58.31;99187.31;1651724;85;21098;-70
2022/04/05 09:51:17;;;;;;;12.37;10.60;;;;;;;4.86;58.95;99184.24;1661501;85;22576;-71
2022/04/05 09:53:55;;;;;;;12.27;11.00;;;;;;;4.96;60.11;99172.91;1649707;85;21644;-70
2022/04/05 09:56:30;;;;;;;11.87;10.50;;;;;;;5.08;59.52;99177.23;1646296;85;21529;-70
2022/04/05 09:59:04;;;;;;;12.90;11.70;;;;;;;5.18;59.57;99187.05;1656723;85;21054;-71
2022/04/05 10:01:36;;;;;;;12.83;10.70;;;;;;;5.23;59.65;99172.77;1651571;85;21073;-70
2022/04/05 10:04:09;;;;;;;11.43;10.10;;;;;;;5.23;60.09;99178.56;1648744;85;21039;-70
2022/04/05 10:06:41;;;;;;;12.23;11.03;;;;;;;5.14;60.51;99151.44;1648942;85;21591;-71
2022/04/05 10:09:08;;;;;;;15.03;11.63;;;;;;;5.07;60.95;99160.58;1651412;85;21089;-71
2022/04/05 10:11:39;;;;;;;12.17;10.80;;;;;;;4.97;61.49;99173.24;1653267;85;21021;-72
2022/04/05 10:14:10;;;;;;;12.37;11.17;;;;;;;4.94;61.92;99170.14;1652871;85;21034;-70
2022/04/05 10:16:39;;;;;;;12.40;11.10;;;;;;;4.80;62.76;99158.06;1649344;85;21576;-71
2022/04/05 10:19:10;;;;;;;13.27;10.87;;;;;;;4.82;63.05;99169.26;1662315;85;21569;-71
2022/04/05 10:21:43;;;;;;;12.83;11.50;;;;;;;4.88;63.26;99161.12;1650411;85;21085;-72
2022/04/05 10:24:12;;;;;;;12.93;11.50;;;;;;;4.96;63.35;99157.57;1644209;85;21069;-70
2022/04/05 10:26:41;;;;;;;11.93;10.83;;;;;;;5.04;63.99;99160.12;1658731;85;21475;-70
2022/04/05 10:29:15;;;;;;;11.77;10.57;;;;;;;5.13;63.82;99158.22;1657344;85;21088;-71
2022/04/05 10:31:55;;;;;;;11.47;10.37;;;;;;;5.17;63.78;99153.70;1656987;85;21576;-71
2022/04/05 10:34:50;;;;;;;14.17;11.77;;;;;;;5.19;64.50;99154.84;1661618;84;21192;-71
2022/04/05 10:37:20;;;;;;;11.27;10.27;;;;;;;5.22;64.61;99139.45;1656500;84;21091;-72
2022/04/05 10:40:01;;;;;;;10.77;9.77;;;;;;;5.18;65.06;99143.47;1669757;84;21075;-70
2022/04/05 10:42:44;;;;;;;10.87;9.87;;;;;;;5.10;65.74;99143.53;1667905;84;21082;-71
2022/04/05 10:45:29;;;;;;;10.53;9.53;;;;;;;5.10;65.86;99142.72;1663007;85;21042;-70
2022/04/05 10:48:12;;;;;;;11.53;10.30;;;;;;;5.07;66.38;99140.77;1664829;84;21109;-71
2022/04/05 10:50:43;;;;;;;12.57;11.37;;;;;;;5.07;66.68;99141.28;1662158;84;21007;-71
2022/04/05 10:53:22;;;;;;;11.30;10.20;;;;;;;5.09;66.13;99135.31;1659449;84;21663;-70
2022/04/05 10:56:10;;;;;;;11.70;10.50;;;;;;;5.09;65.08;99131.34;1655514;84;21122;-72
2022/04/05 10:58:54;;;;;;;9.50;8.60;;;;;;;5.09;63.73;99130.03;1650457;85;21033;-71
2022/04/05 11:01:28;;;;;;;10.37;9.50;;;;;;;5.08;62.69;99117.81;1653617;84;21564;-72
2022/04/05 11:04:20;;;;;;;10.73;9.63;;;;;;;5.15;62.04;99126.64;1643503;85;21078;-69
2022/04/05 11:09:46;;;;;;;10.83;9.83;;;;;;;5.19;60.60;99103.33;1779556;78;22294;-70
2022/04/05 11:12:30;;;;;;;10.87;9.47;;;;;;;5.12;60.16;99121.72;1724600;80;21253;-71
2022/04/05 11:15:04;;;;;;;9.93;9.10;;;;;;;5.13;60.16;99116.77;1697406;83;21370;-71
2022/04/05 11:17:32;;;;;;;10.50;9.50;;;;;;;5.20;59.61;99120.83;1699562;83;21060;-72
2022/04/05 11:20:01;;;;;;;11.93;9.13;;;;;;;5.25;58.70;99104.75;1683715;83;21032;-70
2022/04/05 11:22:39;;;;;;;10.73;9.57;;;;;;;5.29;57.79;99106.49;1700676;83;21545;-70
2022/04/05 11:25:16;;;;;;;11.40;9.37;;;;;;;5.36;57.78;99111.88;1696373;83;21081;-70
2022/04/05 11:27:49;;;;;;;11.80;9.67;;;;;;;5.41;57.27;99097.10;1695693;83;21045;-75
2022/04/05 11:30:37;;;;;;;9.93;9.03;;;;;;;5.46;56.79;99108.42;1696113;83;21116;-76
2022/04/05 11:33:32;;;;;;;10.07;9.13;;;;;;;5.44;56.41;99102.51;1697560;83;21016;-74
2022/04/05 11:36:10;;;;;;;10.05;9.13;;;;;;;5.46;56.53;99102.66;1691908;83;21071;-76
2022/04/05 11:38:44;;;;;;;9.07;8.17;;;;;;;5.48;56.89;99106.41;1693003;83;21568;-77
2022/04/05 11:41:25;;;;;;;9.30;8.43;;;;;;;5.51;57.04;99098.64;1663799;83;22202;-70
2022/04/05 11:43:58;;;;;;;9.73;8.83;;;;;;;5.50;57.20;99089.90;1698887;83;21540;-70
2022/04/05 11:46:37;;;;;;;9.43;8.43;;;;;;;5.49;57.60;99091.40;1705153;82;21080;-70